Flight Track Log - Related Links

Times and Time Zones

All times are in EDT time to prevent confusion due to time zone crossing. See the BAW2649 flight status page for this flight to view local times or setup timezone preferences in your user account.

Time Position Orientation Groundspeed Altitude Reporting Facility
EDT Latitude Longitude Course Direction KTS MPH feet Rate Location/Type
Sun 04:31:00 PM 41.4847 19.6176 312° West  Level Estimated
Sun 04:32:00 PM 41.5546 19.5144 312° West  Level Estimated
Sun 04:33:00 PM 41.6243 19.4110 312° West  Level Estimated
Sun 04:34:00 PM 41.6940 19.3073 312° West  Level Estimated
Sun 04:35:00 PM 41.7636 19.2035 312° West  Level Estimated
Sun 04:36:00 PM 41.8331 19.0994 312° West  Level Estimated
Sun 04:37:00 PM 41.9025 18.9951 312° West  Level Estimated
Sun 04:38:00 PM 41.9718 18.8905 312° West  Level Estimated
Sun 04:39:00 PM 42.0410 18.7857 312° West  Level Estimated
Sun 04:40:00 PM 42.1101 18.6807 312° West  Level Estimated
Sun 04:41:00 PM 42.1791 18.5755 312° West  Level Estimated
Sun 04:42:00 PM 42.2481 18.4701 311° West  Level Estimated
Sun 04:43:00 PM 42.3169 18.3644 311° West  Level Estimated
Sun 04:44:00 PM 42.3856 18.2584 311° West  Level Estimated
Sun 04:45:00 PM 42.4542 18.1523 311° West  Level Estimated
Sun 04:46:00 PM 42.5228 18.0459 311° West  Level Estimated
Sun 04:47:00 PM 42.5912 17.9393 311° West  Level Estimated
Sun 04:48:00 PM 42.6595 17.8324 311° West  Level Estimated
Sun 04:49:00 PM 42.7277 17.7253 311° West  Level Estimated
Sun 04:50:00 PM 42.7890 17.6288 311° West  Level Estimated
Sun 04:51:00 PM 42.8502 17.5321 311° West  Level Estimated
Sun 04:52:00 PM 42.9114 17.4352 311° West  Level Estimated
Sun 04:53:00 PM 42.9724 17.3381 311° West  Level Estimated
Sun 04:54:00 PM 43.0334 17.2408 311° West  Level Estimated
Sun 04:55:00 PM 43.0942 17.1434 311° West  Level Estimated
Sun 04:56:00 PM 43.1550 17.0457 310° West  Level Estimated
Sun 04:57:00 PM 43.2157 16.9478 310° West  Level Estimated
Sun 04:58:00 PM 43.2764 16.8497 310° West  Level Estimated
Sun 04:59:00 PM 43.3369 16.7515 310° West  Level Estimated
Sun 05:00:00 PM 43.3974 16.6530 310° West  Level Estimated
Sun 05:01:00 PM 43.4577 16.5544 310° West  Level Estimated
Sun 05:02:00 PM 43.5180 16.4555 310° West  Level Estimated
Sun 05:03:00 PM 43.5782 16.3565 310° West  Level Estimated
Sun 05:04:00 PM 43.6384 16.2572 310° West  Level Estimated
Sun 05:05:00 PM 43.6984 16.1578 310° West  Level Estimated
Sun 05:06:00 PM 43.7583 16.0581 310° West  Level Estimated
Sun 05:07:00 PM 43.8182 15.9583 310° West  Level Estimated
Sun 05:08:00 PM 43.8780 15.8582 310° West  Level Estimated
Sun 05:09:00 PM 43.9376 15.7580 310° West  Level Estimated
Sun 05:10:00 PM 43.9972 15.6576 310° West  Level Estimated
Sun 05:11:00 PM 44.0568 15.5569 309° West  Level Estimated
Sun 05:12:00 PM 44.1162 15.4561 309° West  Level Estimated
Sun 05:13:00 PM 44.1755 15.3550 309° West  Level Estimated
Sun 05:14:00 PM 44.2347 15.2537 309° West  Level Estimated
Sun 05:15:00 PM 44.2939 15.1523 309° West  Level Estimated
Sun 05:16:00 PM 44.3530 15.0506 309° West  Level Estimated
Sun 05:17:00 PM 44.4119 14.9488 309° West  Level Estimated
Sun 05:18:00 PM 44.4708 14.8467 309° West  Level Estimated
Sun 05:19:00 PM 44.5296 14.7444 309° West  Level Estimated
Sun 05:20:00 PM 44.5883 14.6419 309° West  Level Estimated
Sun 05:21:00 PM 44.6469 14.5392 309° West  Level Estimated
Sun 05:22:00 PM 44.7054 14.4363 309° West  Level Estimated
Sun 05:23:00 PM 44.7638 14.3332 309° West  Level Estimated
Sun 05:24:00 PM 44.8222 14.2299 309° West  Level Estimated
Sun 05:25:00 PM 44.8804 14.1264 308° West  Level Estimated
Sun 05:26:00 PM 44.9385 14.0226 308° West  Level Estimated
Sun 05:27:00 PM 44.9966 13.9187 308° West  Level Estimated
Sun 05:28:00 PM 45.0545 13.8145 308° West  Level Estimated
Sun 05:29:00 PM 45.1124 13.7101 308° West  Level Estimated
Sun 05:30:00 PM 45.1702 13.6056 308° West  Level Estimated
Sun 05:31:00 PM 45.2278 13.5008 308° West  Level Estimated
Sun 05:32:00 PM 45.2854 13.3958 308° West  Level Estimated
Sun 05:33:00 PM 45.3429 13.2905 308° West  Level Estimated
Sun 05:34:00 PM 45.4002 13.1851 308° West  Level Estimated
Sun 05:35:00 PM 45.4575 13.0795 308° West  Level Estimated
Sun 05:36:00 PM 45.5147 12.9736 308° West  Level Estimated
Sun 05:37:00 PM 45.5718 12.8675 308° West  Level Estimated
Sun 05:38:00 PM 45.6288 12.7612 308° West  Level Estimated
Sun 05:39:00 PM 45.6857 12.6547 307° West  Level Estimated
Sun 05:40:00 PM 45.7425 12.5480 307° West  Level Estimated
Sun 05:41:00 PM 45.7992 12.4410 307° West  Level Estimated
Sun 05:42:00 PM 45.8558 12.3339 307° West  Level Estimated
Sun 05:43:00 PM 45.9122 12.2265 307° West  Level Estimated
Sun 05:44:00 PM 45.9686 12.1189 307° West  Level Estimated
Sun 05:45:00 PM 46.0249 12.0111 307° West  Level Estimated
Sun 05:46:00 PM 46.0811 11.9031 307° West  Level Estimated
Sun 05:47:00 PM 46.1372 11.7948 307° West  Level Estimated
Sun 05:48:00 PM 46.1932 11.6863 307° West  Level Estimated
Sun 05:49:00 PM 46.2491 11.5776 307° West  Level Estimated
Sun 05:50:00 PM 46.3048 11.4687 307° West  Level Estimated
Sun 05:51:00 PM 46.3605 11.3596 306° West  Level Estimated
Sun 05:52:00 PM 46.4161 11.2502 306° West  Level Estimated
Sun 05:53:00 PM 46.4715 11.1406 306° West  Level Estimated
Sun 05:54:00 PM 46.5269 11.0308 306° West  Level Estimated
Sun 05:55:00 PM 46.5821 10.9208 306° West  Level Estimated
Sun 05:56:00 PM 46.6373 10.8105 306° West  Level Estimated
Sun 05:57:00 PM 46.6923 10.7000 306° West  Level Estimated
Sun 05:58:00 PM 46.7473 10.5893 306° West  Level Estimated
Sun 05:59:00 PM 46.8021 10.4784 306° West  Level Estimated
Sun 06:00:00 PM 46.8568 10.3672 306° West  Level Estimated
Sun 06:01:00 PM 46.9114 10.2558 306° West  Level Estimated
Sun 06:02:00 PM 46.9659 10.1442 306° West  Level Estimated
Sun 06:03:00 PM 47.0203 10.0324 306° West  Level Estimated
Sun 06:04:00 PM 47.0746 9.9203 305° West  Level Estimated
Sun 06:05:00 PM 47.1288 9.8080 305° West  Level Estimated
Sun 06:06:00 PM 47.1829 9.6955 305° West  Level Estimated
Sun 06:07:00 PM 47.2368 9.5827 305° West  Level Estimated
Sun 06:08:00 PM 47.2907 9.4698 305° West  Level Estimated
Sun 06:09:00 PM 47.3444 9.3565 305° West  Level Estimated
Sun 06:10:00 PM 47.3980 9.2431 305° West  Level Estimated
Sun 06:11:00 PM 47.4515 9.1294 305° West  Level Estimated
Sun 06:12:00 PM 47.5049 9.0155 305° West  Level Estimated
Sun 06:13:00 PM 47.5582 8.9014 305° West  Level Estimated
Sun 06:14:00 PM 47.6114 8.7870 305° West  Level Estimated
Sun 06:15:00 PM 47.6644 8.6724 305° West  Level Estimated
Sun 06:16:00 PM 47.7174 8.5576 304° West  Level Estimated
Sun 06:17:00 PM 47.7757 8.4304 304° West  Level Estimated
Sun 06:18:00 PM 47.8340 8.3030 304° West  Level Estimated
Sun 06:19:00 PM 47.8921 8.1752 304° West  Level Estimated
Sun 06:20:00 PM 47.9500 8.0472 304° West  Level Estimated
Sun 06:21:00 PM 48.0078 7.9189 304° West  Level Estimated
Sun 06:22:00 PM 48.0654 7.7903 304° West  Level Estimated
Sun 06:23:00 PM 48.1230 7.6614 304° West  Level Estimated
Sun 06:24:00 PM 48.1803 7.5323 304° West  Level Estimated
Sun 06:25:00 PM 48.2375 7.4028 304° West  Level Estimated
Sun 06:26:00 PM 48.2946 7.2731 304° West  Level Estimated
Sun 06:27:00 PM 48.3516 7.1430 303° West  Level Estimated
Sun 06:28:00 PM 48.4083 7.0127 303° West  Level Estimated
Sun 06:29:00 PM 48.4650 6.8821 303° West  Level Estimated
Sun 06:29:01 PM 49.1929 3.6040 303° West 1 1 34,000  Level FlightAware UK
Sun 06:29:31 PM 49.2322 3.5425 314° West 1 1 34,000  Level FlightAware UK
Sun 06:30:01 PM 49.2682 3.4683 307° West 1 1 34,000  Level FlightAware UK
Sun 06:30:31 PM 49.3037 3.3914 305° West 1 1 34,000  Level FlightAware UK
Sun 06:31:01 PM 49.3401 3.3177 307° West 1 1 34,000  Level FlightAware UK
Sun 06:31:37 PM 49.3819 3.2228 304° West 1 1 34,000  Level FlightAware UK
Sun 06:32:13 PM 49.4236 3.1308 305° West 1 1 34,000  Level FlightAware UK
Sun 06:32:43 PM 49.4590 3.0532 305° West 1 1 34,000  Level FlightAware UK
Sun 06:33:13 PM 49.4936 2.9761 305° West 1 1 34,000  Level FlightAware UK
Sun 06:33:49 PM 49.5353 2.8851 305° West 1 1 34,000  Level FlightAware UK
Sun 06:34:19 PM 49.5703 2.8083 305° West 1 1 34,000  Level FlightAware UK
Sun 06:34:49 PM 49.6052 2.7319 305° West 442 509 34,000  Level FlightAware UK
Sun 06:35:25 PM 49.6464 2.6409 305° West 442 509 34,000  Level FlightAware UK
Sun 06:35:55 PM 49.6802 2.5636 304° West 440 506 34,000  Level FlightAware UK
Sun 06:36:25 PM 49.7145 2.4878 305° West 440 506 34,000  Level FlightAware UK
Sun 06:36:55 PM 49.7486 2.4111 305° West 438 504 34,000  Level FlightAware UK
Sun 06:37:31 PM 49.7888 2.3202 304° West 438 504 34,000  Level FlightAware UK
Sun 06:38:06 PM 49.8288 2.2291 304° West 436 502 34,000  Level FlightAware UK
Sun 06:38:37 PM 49.8624 2.1525 304° West 434 499 34,000  Level FlightAware UK
Sun 06:39:07 PM 49.8959 2.0767 304° West 436 502 34,000  Level FlightAware UK
Sun 06:39:42 PM 49.9439 1.9983 314° West 434 499 34,000  Level FlightAware UK
Sun 06:40:12 PM 49.9835 1.9312 313° West 436 502 34,000 -600 Level FlightAware UK
Sun 06:40:42 PM 50.0227 1.8632 312° West 438 504 33,400 -1,000 Descending FlightAware UK
Sun 06:41:12 PM 50.0620 1.7950 312° West 440 506 33,000 -900 Descending FlightAware UK
Sun 06:41:42 PM 50.1018 1.7270 312° West 440 506 32,500 -885 Descending FlightAware UK
Sun 06:42:13 PM 50.1424 1.6580 313° West 444 511 32,100 -909 Descending FlightAware UK
Sun 06:42:48 PM 50.1917 1.5749 313° West 446 513 31,500 -1,015 Descending FlightAware UK
Sun 06:43:18 PM 50.2330 1.5052 313° West 446 513 31,000 -2,100 Descending FlightAware UK
Sun 06:43:48 PM 50.2743 1.4348 313° West 452 520 29,400 -3,273 Descending FlightAware UK
Sun 06:44:24 PM 50.3237 1.3496 312° West 454 522 27,400 -3,000 Descending FlightAware UK
Sun 06:45:00 PM 50.3723 1.2660 312° West 440 506 25,800 -2,636 Descending FlightAware UK
Sun 06:45:30 PM 50.4117 1.1983 312° West 432 497 24,500 -2,600 Descending FlightAware UK
Sun 06:46:00 PM 50.4509 1.1305 312° West 424 488 23,200 -2,600 Descending FlightAware UK
Sun 06:46:30 PM 50.4893 1.0643 312° West 416 479 21,900 -2,636 Descending FlightAware UK
Sun 06:47:06 PM 50.5337 0.9881 312° West 402 463 20,300 -2,636 Descending FlightAware UK
Sun 06:47:36 PM 50.5704 0.9240 312° West 396 456 19,000 -2,500 Descending FlightAware UK
Sun 06:48:06 PM 50.6065 0.8605 312° West 392 451 17,800 -2,455 Descending FlightAware UK
Sun 06:48:42 PM 50.6492 0.7859 312° West 382 440 16,300 -2,455 Descending FlightAware UK
Sun 06:49:12 PM 50.6846 0.7241 312° West 374 430 15,100 -1,636 Descending FlightAware UK
Sun 06:49:48 PM 50.7249 0.6535 312° West 352 405 14,500 -1,000 Descending FlightAware UK
Sun 06:50:24 PM 50.7622 0.5873 312° West 326 375 13,900 -750 Descending FlightAware UK
Sun 06:51:00 PM 50.7976 0.5256 312° West 312 359 13,600 -507 Descending FlightAware UK
Sun 06:51:35 PM 50.8324 0.4649 312° West 308 354 13,300 -507 Descending FlightAware UK
Sun 06:52:11 PM 50.8667 0.4043 312° West 308 354 13,000 -455 Descending FlightAware UK
Sun 06:52:41 PM 50.8955 0.3536 312° West 304 350 12,800 -492 Descending FlightAware UK
Sun 06:53:12 PM 50.9246 0.3028 312° West 302 348 12,500 -727 Descending FlightAware UK
Sun 06:53:47 PM 50.9560 0.2408 309° West 300 345 12,000 -1,213 Descending FlightAware UK
Sun 06:54:41 PM 50.9606 0.1170 273° West 296 341 10,700 -1,500 Descending FlightAware UK
Sun 06:55:11 PM 50.9600 0.0484 269° West 292 336 9,900 -1,545 Descending FlightAware UK
Sun 06:55:47 PM 50.9593 -0.0335 269° West 288 331 9,000 -1,500 Descending FlightAware UK
Sun 06:56:23 PM 50.9584 -0.1137 269° West 284 327 8,100 -1,545 Descending FlightAware UK
Sun 06:56:53 PM 50.9629 -0.1782 276° West 278 320 7,300 -1,091 Descending FlightAware UK
Sun 06:57:29 PM 50.9702 -0.2533 279° West 258 297 6,900 -250 Descending FlightAware UK
Sun 06:58:05 PM 50.9765 -0.3226 278° West 244 281 7,000 83 Climbing FlightAware UK
Sun 06:58:41 PM 50.9829 -0.3920 278° West 244 281 7,000 -1,000 Level FlightAware UK
Sun 06:59:17 PM 50.9957 -0.4575 287° West 248 285 5,800 -1,818 Descending FlightAware UK
Sun 06:59:47 PM 51.0170 -0.5012 308° West 242 278 5,000 -1,273 Descending FlightAware UK
Sun 07:00:23 PM 51.0537 -0.5171 345° North 216 249 4,400 -909 Descending FlightAware UK
Sun 07:00:53 PM 51.0786 -0.5125 North 194 223 4,000 -818 Descending FlightAware UK
Sun 07:01:29 PM 51.1013 -0.4840 38° Northeast 190 219 3,500 -833 Descending FlightAware UK
Sun 07:02:05 PM 51.1129 -0.4438 65° Northeast 182 209 3,000 -833 Descending FlightAware UK
Sun 07:02:41 PM 51.1192 -0.4018 77° East 178 205 2,500 -833 Descending FlightAware UK
Sun 07:03:17 PM 51.1245 -0.3604 78° East 176 203 2,000 -833 Descending FlightAware UK
Sun 07:03:53 PM 51.1301 -0.3199 78° East 166 191 1,500 -750 Descending FlightAware UK
Sun 07:04:29 PM 51.1346 -0.2876 77° East 144 166 1,100 -667 Descending FlightAware UK
Sun 07:05:05 PM 51.1393 -0.2541 77° East 148 170 700 -750 Descending FlightAware UK
Sun 07:05:41 PM 51.1445 -0.2171 78° East 148 170 200 -833 Descending FlightAware UK
Sun 07:07:00 PM 51.1481 -0.1903 78° East  Level Estimated

Login

Don't have an account? Register now (free) for customized features, flight alerts, and more!